Time;durP1;ratioP1;P1;durP2;ratioP2;P2;SDS_P1;SDS_P2;PMS_P1;PMS_P2;Temp;Humidity;BMP_temperature;BMP_pressure;BME280_temperature;BME280_humidity;BME280_pressure;Samples;Min_cycle;Max_cycle;Signal;HPM_P1;HPM_P2
2021/10/21 00:00:42;;;;;;;13.90;6.57;;;;;;;;;;4992071;28;20037;-72
2021/10/21 00:03:07;;;;;;;14.68;7.15;;;;;;;;;;4992353;28;20022;-71
2021/10/21 00:05:33;;;;;;;10.70;6.70;;;;;;;;;;4992309;28;20026;-71
2021/10/21 00:07:58;;;;;;;13.55;7.25;;;;;;;;;;4991963;28;20026;-72
2021/10/21 00:10:24;;;;;;;13.63;7.75;;;;;;;;;;4991096;28;20095;-71
2021/10/21 00:12:49;;;;;;;14.00;7.72;;;;;;;;;;4991115;28;20030;-72
2021/10/21 00:15:15;;;;;;;20.42;8.50;;;;;;;;;;4991628;28;20105;-71
2021/10/21 00:17:41;;;;;;;18.95;9.20;;;;;;;;;;4992446;28;20108;-71
2021/10/21 00:20:09;;;;;;;12.55;6.47;;;;;;;;;;4992189;28;20046;-72
2021/10/21 00:22:34;;;;;;;15.90;7.35;;;;;;;;;;4992450;28;20026;-71
2021/10/21 00:25:00;;;;;;;17.30;8.27;;;;;;;;;;4987739;28;20030;-72
2021/10/21 00:27:25;;;;;;;20.42;8.98;;;;;;;;;;4992268;28;20061;-71
2021/10/21 00:29:51;;;;;;;20.38;8.70;;;;;;;;;;4992299;28;20315;-71
2021/10/21 00:32:16;;;;;;;18.42;8.52;;;;;;;;;;4992016;28;20415;-72
2021/10/21 00:34:42;;;;;;;17.13;9.38;;;;;;;;;;4991601;28;20038;-71
2021/10/21 00:37:07;;;;;;;12.63;7.50;;;;;;;;;;4991862;28;20032;-72
2021/10/21 00:39:33;;;;;;;18.45;8.85;;;;;;;;;;4992451;28;20042;-71
2021/10/21 00:41:58;;;;;;;17.92;8.32;;;;;;;;;;4992560;28;20022;-71
2021/10/21 00:44:24;;;;;;;16.00;8.15;;;;;;;;;;4991278;28;20458;-71
2021/10/21 00:46:50;;;;;;;16.70;8.23;;;;;;;;;;4991735;28;20470;-71
2021/10/21 00:49:16;;;;;;;15.65;7.32;;;;;;;;;;4990934;28;20030;-71
2021/10/21 00:51:42;;;;;;;14.50;7.15;;;;;;;;;;4991333;28;20035;-71
2021/10/21 00:54:08;;;;;;;16.88;7.75;;;;;;;;;;4991580;28;20037;-71
2021/10/21 00:56:35;;;;;;;18.08;6.90;;;;;;;;;;4991388;28;20038;-71
2021/10/21 00:59:01;;;;;;;13.27;6.65;;;;;;;;;;4991011;28;20026;-71
2021/10/21 01:01:29;;;;;;;16.80;7.47;;;;;;;;;;4991127;28;20109;-71
2021/10/21 01:03:54;;;;;;;20.17;6.35;;;;;;;;;;4990908;28;20103;-71
2021/10/21 01:06:20;;;;;;;12.95;6.63;;;;;;;;;;4990965;28;20101;-72
2021/10/21 01:08:47;;;;;;;17.27;6.95;;;;;;;;;;4991695;28;20231;-71
2021/10/21 01:11:14;;;;;;;15.88;6.45;;;;;;;;;;4991188;28;20141;-71
2021/10/21 01:13:40;;;;;;;14.07;6.28;;;;;;;;;;4991186;28;20501;-71
2021/10/21 01:16:08;;;;;;;15.93;6.00;;;;;;;;;;4990422;28;20061;-72
2021/10/21 01:18:37;;;;;;;18.30;7.70;;;;;;;;;;4984030;28;20026;-71
2021/10/21 01:21:07;;;;;;;15.63;7.50;;;;;;;;;;4991137;28;20042;-71
2021/10/21 01:23:33;;;;;;;19.20;8.32;;;;;;;;;;4990891;28;20142;-71
2021/10/21 01:25:59;;;;;;;18.17;7.53;;;;;;;;;;4990667;28;20417;-71
2021/10/21 01:28:24;;;;;;;18.60;7.40;;;;;;;;;;4991046;28;20030;-71
2021/10/21 01:30:50;;;;;;;17.63;8.45;;;;;;;;;;4991094;28;20036;-72
2021/10/21 01:33:16;;;;;;;17.33;7.70;;;;;;;;;;4990553;28;20034;-71
2021/10/21 01:35:42;;;;;;;19.35;7.95;;;;;;;;;;4991107;28;20486;-72
2021/10/21 01:38:07;;;;;;;16.13;7.75;;;;;;;;;;4990387;28;20030;-72
2021/10/21 01:40:33;;;;;;;18.38;7.72;;;;;;;;;;4990901;28;20093;-72
2021/10/21 01:42:58;;;;;;;17.65;8.77;;;;;;;;;;4989805;28;20031;-72
2021/10/21 01:45:30;;;;;;;16.48;8.20;;;;;;;;;;4990756;28;20145;-71
2021/10/21 01:47:57;;;;;;;21.17;8.80;;;;;;;;;;4990980;28;20061;-72
2021/10/21 01:50:23;;;;;;;18.10;8.35;;;;;;;;;;4990978;28;20022;-72
2021/10/21 01:52:49;;;;;;;15.88;8.13;;;;;;;;;;4990792;28;20030;-73
2021/10/21 01:55:16;;;;;;;25.90;9.45;;;;;;;;;;4990407;28;20022;-72
2021/10/21 01:57:42;;;;;;;23.40;9.52;;;;;;;;;;4993504;28;20049;-72
2021/10/21 02:00:11;;;;;;;17.45;8.82;;;;;;;;;;4995169;28;20030;-71
2021/10/21 02:02:36;;;;;;;21.00;8.48;;;;;;;;;;4994489;28;20030;-72
2021/10/21 02:05:03;;;;;;;17.15;7.68;;;;;;;;;;4994547;28;20044;-71
2021/10/21 02:07:28;;;;;;;15.52;6.88;;;;;;;;;;4994675;28;20038;-72
2021/10/21 02:09:54;;;;;;;12.60;6.20;;;;;;;;;;4994546;28;20034;-72
2021/10/21 02:12:20;;;;;;;12.68;5.43;;;;;;;;;;4994627;28;20053;-72
2021/10/21 02:14:45;;;;;;;14.98;5.47;;;;;;;;;;4994336;28;20150;-72
2021/10/21 02:17:11;;;;;;;12.68;4.80;;;;;;;;;;4994305;28;20026;-72
2021/10/21 02:19:37;;;;;;;11.63;4.30;;;;;;;;;;4994774;28;20038;-72
2021/10/21 02:22:03;;;;;;;12.85;4.13;;;;;;;;;;4994544;28;20290;-72
2021/10/21 02:24:29;;;;;;;9.40;4.40;;;;;;;;;;4993624;28;20385;-72
2021/10/21 02:26:55;;;;;;;10.88;3.88;;;;;;;;;;4993149;28;20026;-71
2021/10/21 02:29:20;;;;;;;11.82;3.78;;;;;;;;;;4987829;28;20054;-72
2021/10/21 02:31:46;;;;;;;9.30;3.33;;;;;;;;;;4994109;28;20038;-72
2021/10/21 02:34:11;;;;;;;8.80;4.22;;;;;;;;;;5004757;28;20026;-72
2021/10/21 02:36:37;;;;;;;16.38;4.45;;;;;;;;;;4995959;28;20117;-71
2021/10/21 02:39:04;;;;;;;12.55;4.18;;;;;;;;;;4994386;28;20496;-72
2021/10/21 02:41:29;;;;;;;10.65;4.70;;;;;;;;;;4994072;28;20030;-72
2021/10/21 02:43:55;;;;;;;10.23;4.32;;;;;;;;;;4994216;28;20061;-72
2021/10/21 02:46:20;;;;;;;9.23;4.38;;;;;;;;;;4991242;28;20022;-72
2021/10/21 02:48:46;;;;;;;11.73;5.57;;;;;;;;;;4994625;28;20027;-72
2021/10/21 02:51:11;;;;;;;12.45;5.85;;;;;;;;;;4993959;28;20478;-73
2021/10/21 02:53:37;;;;;;;13.48;4.80;;;;;;;;;;4990530;28;20062;-72
2021/10/21 02:56:03;;;;;;;13.68;5.30;;;;;;;;;;4993829;28;20027;-72
2021/10/21 02:58:28;;;;;;;10.35;4.78;;;;;;;;;;4993385;28;20176;-72
2021/10/21 03:00:54;;;;;;;11.88;5.55;;;;;;;;;;4993102;28;20180;-72
2021/10/21 03:03:19;;;;;;;11.18;4.43;;;;;;;;;;4993563;28;20025;-72
2021/10/21 03:05:44;;;;;;;11.93;4.43;;;;;;;;;;4993926;28;20078;-72
2021/10/21 03:08:10;;;;;;;6.88;3.75;;;;;;;;;;4993118;28;20026;-73
2021/10/21 03:10:35;;;;;;;8.18;3.72;;;;;;;;;;4993726;28;20031;-72
2021/10/21 03:13:02;;;;;;;9.00;3.88;;;;;;;;;;4992692;28;20279;-72
2021/10/21 03:15:27;;;;;;;7.00;3.47;;;;;;;;;;4993206;28;20040;-72
2021/10/21 03:17:54;;;;;;;9.00;3.30;;;;;;;;;;4992267;28;20034;-72
2021/10/21 03:20:19;;;;;;;8.00;3.42;;;;;;;;;;4993072;28;20405;-73
2021/10/21 03:22:44;;;;;;;12.30;3.72;;;;;;;;;;4993226;28;20109;-72
2021/10/21 03:25:11;;;;;;;51.38;24.33;;;;;;;;;;4993103;28;20018;-72
2021/10/21 03:27:38;;;;;;;24.13;14.32;;;;;;;;;;4993304;28;20438;-72
2021/10/21 03:30:05;;;;;;;29.88;12.98;;;;;;;;;;4992710;28;20080;-72
2021/10/21 03:32:31;;;;;;;55.03;30.00;;;;;;;;;;4993660;28;20026;-72
2021/10/21 03:34:58;;;;;;;114.10;82.20;;;;;;;;;;4995440;28;20026;-73
2021/10/21 03:37:23;;;;;;;22.70;17.35;;;;;;;;;;4993433;28;20440;-73
2021/10/21 03:39:50;;;;;;;19.63;13.65;;;;;;;;;;4993129;28;20038;-72
2021/10/21 03:42:19;;;;;;;12.38;7.45;;;;;;;;;;4992960;28;20377;-72
2021/10/21 03:44:45;;;;;;;27.88;22.02;;;;;;;;;;4993369;28;20034;-72
2021/10/21 03:47:10;;;;;;;22.85;17.20;;;;;;;;;;4986856;28;20182;-72
2021/10/21 03:49:37;;;;;;;22.83;14.40;;;;;;;;;;4992689;28;20065;-72
2021/10/21 03:52:03;;;;;;;15.90;10.05;;;;;;;;;;4993298;28;20089;-72
2021/10/21 03:54:28;;;;;;;19.85;14.45;;;;;;;;;;4992538;28;20030;-71
2021/10/21 03:56:54;;;;;;;90.30;57.95;;;;;;;;;;4991948;28;20053;-71
2021/10/21 03:59:19;;;;;;;21.95;8.40;;;;;;;;;;4992476;28;20080;-72
2021/10/21 04:01:45;;;;;;;113.68;62.60;;;;;;;;;;4990782;28;20058;-72
2021/10/21 04:04:10;;;;;;;37.13;19.42;;;;;;;;;;4992601;28;20025;-72
2021/10/21 04:06:36;;;;;;;28.35;12.27;;;;;;;;;;4992551;28;20038;-71
2021/10/21 04:09:02;;;;;;;28.02;18.95;;;;;;;;;;4992907;28;20018;-70
2021/10/21 04:11:27;;;;;;;36.45;18.85;;;;;;;;;;4987727;28;20066;-72
2021/10/21 04:13:53;;;;;;;15.43;7.78;;;;;;;;;;4992845;28;20474;-71
2021/10/21 04:16:18;;;;;;;17.73;7.97;;;;;;;;;;4992266;28;20093;-72
2021/10/21 04:18:44;;;;;;;12.30;6.85;;;;;;;;;;4992635;28;20026;-72
2021/10/21 04:21:11;;;;;;;11.05;5.72;;;;;;;;;;4991320;28;20042;-72
2021/10/21 04:23:36;;;;;;;11.15;6.40;;;;;;;;;;4992407;28;20096;-72
2021/10/21 04:26:02;;;;;;;17.77;6.75;;;;;;;;;;4996538;28;20034;-72
2021/10/21 04:28:27;;;;;;;9.52;3.20;;;;;;;;;;4998929;28;20080;-72
2021/10/21 04:30:53;;;;;;;7.07;3.40;;;;;;;;;;4991801;28;20026;-73
2021/10/21 04:33:18;;;;;;;14.20;3.92;;;;;;;;;;4995052;28;20112;-73
2021/10/21 04:35:44;;;;;;;8.30;3.67;;;;;;;;;;4991083;28;20478;-75
2021/10/21 04:38:09;;;;;;;7.47;2.90;;;;;;;;;;4992536;28;20109;-75
2021/10/21 04:40:35;;;;;;;9.90;3.38;;;;;;;;;;4991096;28;20129;-75
2021/10/21 04:43:00;;;;;;;11.20;3.20;;;;;;;;;;4988890;28;20433;-74
2021/10/21 04:45:26;;;;;;;9.95;2.78;;;;;;;;;;4991868;28;20026;-75
2021/10/21 04:47:56;;;;;;;11.48;3.92;;;;;;;;;;4994422;28;20490;-75
2021/10/21 04:50:23;;;;;;;3.80;1.85;;;;;;;;;;4992210;28;20049;-77
2021/10/21 04:52:52;;;;;;;7.60;2.53;;;;;;;;;;4991842;28;20059;-78
2021/10/21 04:55:20;;;;;;;7.45;2.45;;;;;;;;;;4991361;28;20072;-77
2021/10/21 04:57:46;;;;;;;10.32;2.45;;;;;;;;;;4991845;28;20033;-78
2021/10/21 05:00:13;;;;;;;6.70;2.22;;;;;;;;;;4991151;28;20030;-77
2021/10/21 05:02:38;;;;;;;6.18;2.33;;;;;;;;;;4974275;28;20026;-78
2021/10/21 05:05:04;;;;;;;7.35;2.28;;;;;;;;;;4991226;28;20517;-78
2021/10/21 05:07:29;;;;;;;7.60;2.00;;;;;;;;;;4985839;28;20453;-78
2021/10/21 05:09:56;;;;;;;10.95;2.05;;;;;;;;;;4987723;28;20105;-78
2021/10/21 05:12:21;;;;;;;13.10;3.28;;;;;;;;;;4990740;28;20030;-77
2021/10/21 05:14:47;;;;;;;15.48;4.25;;;;;;;;;;4989912;28;20387;-78
2021/10/21 05:17:12;;;;;;;14.75;4.07;;;;;;;;;;4991051;28;20036;-78
2021/10/21 05:19:37;;;;;;;22.58;9.68;;;;;;;;;;4991354;28;20437;-78
2021/10/21 05:22:03;;;;;;;79.53;33.65;;;;;;;;;;4990746;28;21887;-77
2021/10/21 05:24:28;;;;;;;18.38;8.65;;;;;;;;;;4991539;28;20018;-77
2021/10/21 05:26:54;;;;;;;44.75;23.58;;;;;;;;;;4990884;28;20030;-77
2021/10/21 05:29:20;;;;;;;154.80;75.97;;;;;;;;;;4990792;28;20018;-79
2021/10/21 05:31:46;;;;;;;64.07;37.67;;;;;;;;;;4990203;28;20026;-78
2021/10/21 05:34:11;;;;;;;17.77;9.30;;;;;;;;;;4990752;28;20037;-79
2021/10/21 05:36:37;;;;;;;29.45;15.25;;;;;;;;;;4990636;28;20034;-78
2021/10/21 05:39:03;;;;;;;41.00;29.08;;;;;;;;;;4990463;28;20038;-78
2021/10/21 05:41:28;;;;;;;69.20;37.15;;;;;;;;;;4990672;28;20026;-78
2021/10/21 05:43:54;;;;;;;92.47;45.78;;;;;;;;;;4991408;28;20038;-77
2021/10/21 05:46:20;;;;;;;162.25;73.22;;;;;;;;;;4991072;28;20385;-78
2021/10/21 05:48:45;;;;;;;131.98;69.95;;;;;;;;;;4990015;28;20027;-78
2021/10/21 05:51:11;;;;;;;14.32;4.00;;;;;;;;;;5002068;28;20030;-78
2021/10/21 05:53:36;;;;;;;13.80;6.30;;;;;;;;;;4994812;28;20034;-78
2021/10/21 05:56:02;;;;;;;49.40;28.50;;;;;;;;;;4998213;28;20037;-77
2021/10/21 05:58:27;;;;;;;33.47;17.70;;;;;;;;;;4993921;28;20026;-79
2021/10/21 06:00:53;;;;;;;12.40;3.83;;;;;;;;;;4989600;28;20026;-79
2021/10/21 06:03:19;;;;;;;20.65;13.13;;;;;;;;;;4986213;28;20501;-78
2021/10/21 06:05:44;;;;;;;19.92;8.57;;;;;;;;;;4985338;28;20022;-78
2021/10/21 06:08:09;;;;;;;14.65;6.00;;;;;;;;;;4972195;28;20022;-77
2021/10/21 06:10:35;;;;;;;9.38;3.40;;;;;;;;;;4990984;28;20023;-78
2021/10/21 06:13:01;;;;;;;11.40;4.22;;;;;;;;;;4991213;28;20022;-79
2021/10/21 06:15:28;;;;;;;10.77;4.85;;;;;;;;;;4991152;28;20073;-77
2021/10/21 06:17:56;;;;;;;12.35;4.53;;;;;;;;;;4990956;28;20032;-79
2021/10/21 06:20:21;;;;;;;14.65;3.97;;;;;;;;;;4990699;28;20533;-78
2021/10/21 06:22:47;;;;;;;18.15;5.55;;;;;;;;;;4991369;28;20022;-79
2021/10/21 06:25:13;;;;;;;10.80;3.97;;;;;;;;;;4991161;28;20038;-78
2021/10/21 06:27:39;;;;;;;12.45;4.78;;;;;;;;;;4991031;28;20105;-79
2021/10/21 06:30:06;;;;;;;10.93;3.50;;;;;;;;;;4990921;28;20022;-79
2021/10/21 06:32:32;;;;;;;9.82;3.70;;;;;;;;;;4990668;28;20031;-80
2021/10/21 06:34:57;;;;;;;10.63;4.00;;;;;;;;;;5002003;28;20041;-78
2021/10/21 06:37:23;;;;;;;13.52;4.15;;;;;;;;;;4988889;28;20398;-78
2021/10/21 06:39:54;;;;;;;11.65;4.10;;;;;;;;;;4990135;28;20034;-78
2021/10/21 06:42:21;;;;;;;16.95;4.25;;;;;;;;;;4991026;28;20037;-79
2021/10/21 06:44:46;;;;;;;11.52;4.35;;;;;;;;;;4994826;28;20033;-78
2021/10/21 06:47:12;;;;;;;13.10;4.63;;;;;;;;;;4991681;28;20038;-79
2021/10/21 06:49:37;;;;;;;13.85;4.53;;;;;;;;;;4992359;28;20030;-79
2021/10/21 06:52:03;;;;;;;14.68;5.07;;;;;;;;;;4993509;28;20497;-79
2021/10/21 06:54:29;;;;;;;14.80;5.20;;;;;;;;;;4992232;28;20513;-79
2021/10/21 06:56:55;;;;;;;14.32;5.60;;;;;;;;;;4993752;28;20510;-78
2021/10/21 06:59:24;;;;;;;21.83;6.00;;;;;;;;;;4991938;28;20378;-79
2021/10/21 07:01:51;;;;;;;19.45;6.60;;;;;;;;;;4994434;28;20049;-75
2021/10/21 07:04:17;;;;;;;18.02;6.97;;;;;;;;;;4995276;28;20033;-76
2021/10/21 07:06:42;;;;;;;21.85;7.68;;;;;;;;;;4994491;28;20034;-77
2021/10/21 07:09:08;;;;;;;20.35;7.30;;;;;;;;;;4992844;28;20026;-77
2021/10/21 07:11:34;;;;;;;18.05;7.63;;;;;;;;;;4994810;28;20080;-76
2021/10/21 07:14:00;;;;;;;16.35;6.80;;;;;;;;;;4994863;28;20022;-76
2021/10/21 07:16:26;;;;;;;13.48;6.45;;;;;;;;;;4993568;28;20023;-77
2021/10/21 07:18:51;;;;;;;19.23;5.50;;;;;;;;;;4994734;28;20026;-76
2021/10/21 07:21:18;;;;;;;16.17;5.43;;;;;;;;;;4994431;28;20073;-76
2021/10/21 07:23:46;;;;;;;12.20;4.80;;;;;;;;;;4993860;28;20505;-76
2021/10/21 07:26:14;;;;;;;10.35;4.65;;;;;;;;;;4994611;28;20053;-77
2021/10/21 07:28:39;;;;;;;14.38;4.88;;;;;;;;;;4987561;28;20038;-75
2021/10/21 07:31:13;;;;;;;12.35;4.90;;;;;;;;;;4998894;28;20115;-76
2021/10/21 07:33:39;;;;;;;14.32;4.72;;;;;;;;;;4999607;28;20030;-76
2021/10/21 07:36:05;;;;;;;16.17;4.60;;;;;;;;;;4994895;28;20486;-76
2021/10/21 07:38:31;;;;;;;9.93;3.75;;;;;;;;;;4994434;28;20045;-76
2021/10/21 07:40:56;;;;;;;10.45;4.57;;;;;;;;;;4987986;28;20022;-76
2021/10/21 07:43:22;;;;;;;11.43;3.88;;;;;;;;;;4984363;28;20025;-76
2021/10/21 07:45:48;;;;;;;11.05;3.85;;;;;;;;;;4993473;28;20718;-77
2021/10/21 07:48:14;;;;;;;17.23;4.40;;;;;;;;;;4997962;28;20496;-77
2021/10/21 07:50:39;;;;;;;11.45;3.65;;;;;;;;;;4995006;28;20122;-76
2021/10/21 07:53:08;;;;;;;10.50;3.92;;;;;;;;;;4993580;28;20049;-76
2021/10/21 07:55:34;;;;;;;10.95;4.55;;;;;;;;;;4997377;28;20092;-75
2021/10/21 07:58:00;;;;;;;10.40;3.65;;;;;;;;;;4998548;28;20045;-76
2021/10/21 08:00:26;;;;;;;11.13;3.45;;;;;;;;;;4993232;28;20026;-76
2021/10/21 08:02:52;;;;;;;9.77;3.70;;;;;;;;;;4991898;28;20172;-76
2021/10/21 08:05:17;;;;;;;12.85;3.83;;;;;;;;;;4976640;28;20109;-75
2021/10/21 08:07:46;;;;;;;15.40;3.72;;;;;;;;;;4993718;28;20393;-78
2021/10/21 08:10:14;;;;;;;14.50;4.20;;;;;;;;;;4984746;28;20053;-77
2021/10/21 08:12:43;;;;;;;13.75;3.45;;;;;;;;;;4993609;28;20030;-76
2021/10/21 08:15:10;;;;;;;9.77;3.60;;;;;;;;;;4993988;28;20105;-77
2021/10/21 08:17:37;;;;;;;7.93;3.47;;;;;;;;;;5000325;28;20026;-77
2021/10/21 08:20:03;;;;;;;11.73;3.40;;;;;;;;;;4993104;28;20058;-76
2021/10/21 08:22:29;;;;;;;9.93;3.58;;;;;;;;;;4992722;28;20076;-77
2021/10/21 08:24:57;;;;;;;9.68;3.20;;;;;;;;;;4988468;28;20450;-77
2021/10/21 08:27:22;;;;;;;10.57;2.90;;;;;;;;;;4993099;28;20058;-77
2021/10/21 08:29:48;;;;;;;11.98;3.65;;;;;;;;;;4993093;28;20486;-77
2021/10/21 08:32:13;;;;;;;11.40;2.90;;;;;;;;;;4992529;28;20064;-75
2021/10/21 08:34:40;;;;;;;10.77;2.65;;;;;;;;;;4998191;28;20471;-76
2021/10/21 08:37:07;;;;;;;8.07;2.97;;;;;;;;;;4993011;28;20102;-76
2021/10/21 08:39:35;;;;;;;6.05;2.72;;;;;;;;;;4988484;28;20451;-75
2021/10/21 08:42:00;;;;;;;13.18;2.92;;;;;;;;;;4990071;28;20030;-76
2021/10/21 08:44:26;;;;;;;8.02;2.65;;;;;;;;;;4992359;28;20077;-76
2021/10/21 08:46:55;;;;;;;7.65;2.65;;;;;;;;;;4991859;28;20069;-77
2021/10/21 08:49:22;;;;;;;7.57;2.80;;;;;;;;;;4992454;28;20393;-77
2021/10/21 08:51:47;;;;;;;10.02;2.88;;;;;;;;;;4996407;28;20028;-76
2021/10/21 08:54:13;;;;;;;8.50;2.65;;;;;;;;;;4992171;28;20027;-75
2021/10/21 08:56:39;;;;;;;8.75;2.78;;;;;;;;;;5000264;28;20030;-75
2021/10/21 08:59:05;;;;;;;8.30;2.40;;;;;;;;;;4991956;28;20530;-76
2021/10/21 09:07:56;;;;;;;7.15;2.65;;;;;;;;;;4986771;28;20378;-77
2021/10/21 09:09:43;;;;;;;9.13;2.50;;;;;;;;;;4992477;28;20026;-76
2021/10/21 09:12:15;;;;;;;7.13;2.15;;;;;;;;;;4991919;28;20034;-76
2021/10/21 09:14:50;;;;;;;9.25;2.47;;;;;;;;;;4992110;28;20059;-76
2021/10/21 09:17:17;;;;;;;5.65;2.50;;;;;;;;;;4992083;28;20551;-76
2021/10/21 09:19:45;;;;;;;7.55;2.42;;;;;;;;;;4992031;28;20037;-77
2021/10/21 09:22:27;;;;;;;8.93;2.80;;;;;;;;;;4990333;28;20049;-76
2021/10/21 09:25:04;;;;;;;6.70;2.55;;;;;;;;;;4998709;28;20062;-76
2021/10/21 09:27:34;;;;;;;8.48;2.90;;;;;;;;;;4992525;28;20474;-77
2021/10/21 09:30:05;;;;;;;14.43;2.58;;;;;;;;;;4992631;28;20034;-77
2021/10/21 09:32:32;;;;;;;10.05;3.85;;;;;;;;;;4992018;28;20657;-77
2021/10/21 09:35:05;;;;;;;8.57;3.10;;;;;;;;;;4992632;28;20026;-77
2021/10/21 09:37:37;;;;;;;11.90;3.50;;;;;;;;;;4990322;28;20037;-77
2021/10/21 09:40:07;;;;;;;6.97;2.92;;;;;;;;;;4991764;28;20390;-78
2021/10/21 09:42:41;;;;;;;7.50;2.90;;;;;;;;;;4997979;28;20121;-78
2021/10/21 09:45:29;;;;;;;7.13;3.00;;;;;;;;;;4992492;28;20353;-78
2021/10/21 09:47:59;;;;;;;9.32;2.88;;;;;;;;;;4991140;28;20034;-77
2021/10/21 09:50:32;;;;;;;7.20;3.40;;;;;;;;;;4991002;28;20025;-77
2021/10/21 09:53:17;;;;;;;7.50;3.00;;;;;;;;;;4991503;28;20034;-76
2021/10/21 09:55:46;;;;;;;9.85;3.45;;;;;;;;;;4993764;28;20149;-78
2021/10/21 09:58:13;;;;;;;8.27;3.47;;;;;;;;;;4998917;28;20022;-78
2021/10/21 10:00:44;;;;;;;10.07;4.32;;;;;;;;;;4991312;28;20121;-76
2021/10/21 10:03:17;;;;;;;6.80;3.28;;;;;;;;;;4991699;28;20065;-79
2021/10/21 10:05:48;;;;;;;9.73;3.58;;;;;;;;;;4988887;28;20522;-76
2021/10/21 10:08:18;;;;;;;11.93;4.22;;;;;;;;;;5000172;28;20366;-76
2021/10/21 10:10:48;;;;;;;5.97;4.07;;;;;;;;;;4987301;28;20113;-77
2021/10/21 10:13:21;;;;;;;8.30;4.00;;;;;;;;;;4982020;28;20029;-78
2021/10/21 10:15:49;;;;;;;7.65;3.75;;;;;;;;;;4982749;28;20370;-79
2021/10/21 10:18:18;;;;;;;12.05;4.05;;;;;;;;;;4973776;28;20030;-78
2021/10/21 10:20:51;;;;;;;11.82;4.00;;;;;;;;;;4991102;28;20037;-78
2021/10/21 10:23:18;;;;;;;7.22;3.60;;;;;;;;;;4994767;28;20026;-78
2021/10/21 10:25:46;;;;;;;7.15;3.53;;;;;;;;;;4993811;28;20034;-78
2021/10/21 10:28:12;;;;;;;9.65;3.60;;;;;;;;;;4993060;28;20050;-78
2021/10/21 10:30:48;;;;;;;9.70;3.85;;;;;;;;;;4995096;28;20088;-77
2021/10/21 10:33:42;;;;;;;10.10;3.83;;;;;;;;;;4998332;28;20033;-78
2021/10/21 10:36:30;;;;;;;7.53;3.38;;;;;;;;;;5005354;28;20022;-77
2021/10/21 10:39:07;;;;;;;6.03;3.35;;;;;;;;;;4995311;28;20109;-76
2021/10/21 10:41:45;;;;;;;7.38;3.95;;;;;;;;;;4989789;28;20037;-76
2021/10/21 10:44:33;;;;;;;6.50;4.00;;;;;;;;;;4992476;28;20386;-78
2021/10/21 10:47:00;;;;;;;5.95;3.72;;;;;;;;;;4966793;28;20042;-75
2021/10/21 10:49:37;;;;;;;8.68;4.60;;;;;;;;;;4990911;28;20038;-77
2021/10/21 10:52:04;;;;;;;13.95;5.80;;;;;;;;;;4993167;28;20042;-78
2021/10/21 10:54:51;;;;;;;10.15;5.38;;;;;;;;;;5001486;28;20088;-78
2021/10/21 10:57:26;;;;;;;11.98;6.38;;;;;;;;;;4998315;28;20033;-77
2021/10/21 10:59:58;;;;;;;11.93;6.40;;;;;;;;;;5000575;28;20034;-77
2021/10/21 11:02:27;;;;;;;8.77;5.78;;;;;;;;;;5010152;28;20101;-77
2021/10/21 11:04:53;;;;;;;13.95;6.40;;;;;;;;;;4996316;28;20041;-78
2021/10/21 11:07:46;;;;;;;13.27;5.93;;;;;;;;;;4989929;28;20031;-77
2021/10/21 11:10:23;;;;;;;16.60;6.13;;;;;;;;;;4997019;28;20037;-77
2021/10/21 11:12:52;;;;;;;10.35;5.68;;;;;;;;;;4998082;28;20057;-77
2021/10/21 11:15:32;;;;;;;14.55;6.35;;;;;;;;;;4992486;28;20030;-77
2021/10/21 11:17:59;;;;;;;8.52;5.75;;;;;;;;;;4985057;28;20026;-77
2021/10/21 11:20:33;;;;;;;10.40;4.97;;;;;;;;;;4985936;28;20030;-75
2021/10/21 11:23:04;;;;;;;11.02;5.13;;;;;;;;;;4990359;28;20073;-78
2021/10/21 11:25:36;;;;;;;8.75;4.43;;;;;;;;;;4983938;28;20392;-76
2021/10/21 11:28:03;;;;;;;9.50;4.13;;;;;;;;;;4987448;28;20083;-77
2021/10/21 11:30:34;;;;;;;11.10;4.38;;;;;;;;;;4989475;28;20038;-76
2021/10/21 11:33:03;;;;;;;7.72;4.18;;;;;;;;;;4993723;28;20366;-77
2021/10/21 11:35:32;;;;;;;12.63;4.72;;;;;;;;;;4995193;28;20034;-78
2021/10/21 11:38:04;;;;;;;10.68;4.22;;;;;;;;;;4990825;28;20030;-76
2021/10/21 11:40:39;;;;;;;8.98;4.05;;;;;;;;;;4994580;28;20054;-77
2021/10/21 11:43:08;;;;;;;7.38;3.22;;;;;;;;;;4993126;28;20127;-76
2021/10/21 11:45:37;;;;;;;8.93;2.83;;;;;;;;;;4991922;28;20034;-77
2021/10/21 11:48:11;;;;;;;10.35;3.10;;;;;;;;;;4990204;28;20034;-77
2021/10/21 11:50:40;;;;;;;7.80;3.42;;;;;;;;;;4997022;28;20038;-75
2021/10/21 11:53:08;;;;;;;7.25;2.50;;;;;;;;;;4993621;28;20030;-74
2021/10/21 11:55:34;;;;;;;5.53;1.70;;;;;;;;;;4997849;28;20044;-76
2021/10/21 11:58:09;;;;;;;4.43;1.75;;;;;;;;;;4996661;28;20731;-77
2021/10/21 12:00:34;;;;;;;8.63;1.88;;;;;;;;;;4989852;28;20030;-77
2021/10/21 12:03:01;;;;;;;3.83;1.23;;;;;;;;;;4992814;28;20037;-77
2021/10/21 12:05:32;;;;;;;4.65;1.27;;;;;;;;;;4986712;28;20117;-76
2021/10/21 12:08:00;;;;;;;5.43;1.40;;;;;;;;;;4993370;28;20415;-76
2021/10/21 12:10:31;;;;;;;11.35;1.50;;;;;;;;;;4993823;28;20098;-76
2021/10/21 12:13:01;;;;;;;5.30;1.38;;;;;;;;;;4995208;28;20096;-77
2021/10/21 12:15:31;;;;;;;7.68;1.30;;;;;;;;;;5013101;28;20113;-76
2021/10/21 12:17:57;;;;;;;5.47;1.20;;;;;;;;;;4991191;28;20121;-77
2021/10/21 12:20:38;;;;;;;5.15;1.48;;;;;;;;;;4984453;28;20105;-75
2021/10/21 12:23:12;;;;;;;5.10;1.13;;;;;;;;;;4984031;28;20487;-76
2021/10/21 12:25:38;;;;;;;;;;;;;;;;;;4979716;28;20039;-77
2021/10/21 12:28:03;;;;;;;2.60;0.90;;;;;;;;;;4987255;28;19941;-76
2021/10/21 12:30:35;;;;;;;5.38;1.40;;;;;;;;;;4988034;28;20026;-78
2021/10/21 12:33:15;;;;;;;7.05;1.50;;;;;;;;;;4988742;28;20030;-77
2021/10/21 12:36:03;;;;;;;4.30;1.17;;;;;;;;;;4987955;28;20382;-76
2021/10/21 12:38:31;;;;;;;5.20;1.30;;;;;;;;;;4992296;28;20507;-75
2021/10/21 12:40:59;;;;;;;4.50;1.77;;;;;;;;;;4986518;28;20034;-76
2021/10/21 12:43:25;;;;;;;4.82;1.70;;;;;;;;;;4978837;28;20030;-78
2021/10/21 12:45:51;;;;;;;7.88;1.33;;;;;;;;;;4989319;28;20018;-77
2021/10/21 12:48:27;;;;;;;6.68;1.20;;;;;;;;;;4989134;28;20035;-76
2021/10/21 12:51:07;;;;;;;6.35;1.95;;;;;;;;;;4992754;28;20068;-76
2021/10/21 12:53:33;;;;;;;7.38;1.38;;;;;;;;;;4995490;28;20042;-76
2021/10/21 12:56:23;;;;;;;7.30;1.52;;;;;;;;;;5009647;28;20504;-76
2021/10/21 12:59:00;;;;;;;4.75;1.13;;;;;;;;;;4990535;28;20045;-76
2021/10/21 13:01:26;;;;;;;8.60;1.75;;;;;;;;;;4994119;28;20362;-76
2021/10/21 13:03:52;;;;;;;6.38;1.30;;;;;;;;;;4982284;28;20065;-76
2021/10/21 13:06:19;;;;;;;4.57;1.30;;;;;;;;;;4991859;28;20034;-76
2021/10/21 13:08:51;;;;;;;6.63;1.60;;;;;;;;;;4992631;28;20054;-76
2021/10/21 13:11:19;;;;;;;5.88;1.23;;;;;;;;;;4992547;28;20041;-76
2021/10/21 13:13:50;;;;;;;8.13;1.52;;;;;;;;;;4980944;28;20457;-77
2021/10/21 13:16:16;;;;;;;9.75;1.40;;;;;;;;;;4986209;28;20462;-78
2021/10/21 13:18:42;;;;;;;6.78;1.20;;;;;;;;;;4989453;28;20184;-77
2021/10/21 13:21:08;;;;;;;8.30;1.75;;;;;;;;;;4992030;28;20129;-77
2021/10/21 13:23:34;;;;;;;6.03;0.93;;;;;;;;;;4991686;28;20014;-78
2021/10/21 13:26:02;;;;;;;6.60;1.48;;;;;;;;;;4981137;28;20356;-76
2021/10/21 13:28:28;;;;;;;9.85;1.42;;;;;;;;;;4986913;28;20018;-76
2021/10/21 13:30:54;;;;;;;6.57;1.50;;;;;;;;;;4984228;28;20344;-76
2021/10/21 13:33:19;;;;;;;7.45;1.08;;;;;;;;;;4988963;28;20034;-75
2021/10/21 13:35:45;;;;;;;2.03;0.70;;;;;;;;;;4988628;28;20647;-77
2021/10/21 13:38:12;;;;;;;4.25;0.90;;;;;;;;;;4989607;28;20344;-74
2021/10/21 13:40:42;;;;;;;5.30;0.90;;;;;;;;;;4987806;28;20562;-77
2021/10/21 13:43:08;;;;;;;3.33;0.63;;;;;;;;;;4989111;28;20022;-75
2021/10/21 13:45:37;;;;;;;3.08;0.80;;;;;;;;;;4988219;28;20022;-74
2021/10/21 13:48:09;;;;;;;3.67;0.80;;;;;;;;;;4985892;28;20124;-75
2021/10/21 13:50:35;;;;;;;3.65;0.77;;;;;;;;;;4992935;28;20027;-71
2021/10/21 13:53:01;;;;;;;3.78;0.88;;;;;;;;;;4990929;28;20458;-77
2021/10/21 13:55:27;;;;;;;1.70;0.77;;;;;;;;;;4985342;28;20045;-75
2021/10/21 13:57:53;;;;;;;3.33;0.60;;;;;;;;;;4990789;28;20034;-74
2021/10/21 14:00:21;;;;;;;5.55;0.98;;;;;;;;;;4981555;28;20174;-75
2021/10/21 14:02:47;;;;;;;2.92;0.68;;;;;;;;;;5003424;28;20030;-76
2021/10/21 14:05:15;;;;;;;2.92;0.68;;;;;;;;;;4987109;28;20078;-74
2021/10/21 14:07:42;;;;;;;5.30;1.23;;;;;;;;;;4990648;28;20471;-72
2021/10/21 14:10:10;;;;;;;4.82;0.70;;;;;;;;;;4988917;28;20031;-73
2021/10/21 14:12:38;;;;;;;3.40;1.00;;;;;;;;;;4978009;28;20119;-73
2021/10/21 14:15:04;;;;;;;2.85;0.82;;;;;;;;;;4989379;28;20108;-73
2021/10/21 14:17:39;;;;;;;3.28;0.55;;;;;;;;;;4991737;28;20470;-73
2021/10/21 14:20:08;;;;;;;4.50;0.98;;;;;;;;;;4977810;28;20030;-75
2021/10/21 14:22:33;;;;;;;6.07;1.15;;;;;;;;;;5010403;28;20065;-74
2021/10/21 14:24:59;;;;;;;2.10;0.47;;;;;;;;;;4999000;28;20038;-74
2021/10/21 14:27:29;;;;;;;3.97;0.90;;;;;;;;;;4978159;28;20030;-75
2021/10/21 14:29:57;;;;;;;6.43;0.70;;;;;;;;;;4975783;28;20117;-74
2021/10/21 14:32:23;;;;;;;6.10;1.40;;;;;;;;;;4991127;28;20026;-73
2021/10/21 14:34:49;;;;;;;8.32;0.90;;;;;;;;;;4985706;28;20118;-76
2021/10/21 14:37:16;;;;;;;3.97;0.98;;;;;;;;;;4980285;28;20022;-73
2021/10/21 14:39:41;;;;;;;6.88;0.95;;;;;;;;;;4986146;28;20039;-74
2021/10/21 14:42:08;;;;;;;5.53;0.95;;;;;;;;;;4991035;28;20042;-74